Eko 4 — SVAR8 — position and weather

sailwx.info

Track history (hours):
 
Tides and Currents Weather Stations Pressure Air Temp Water Temp Dewpoint Dewpoint Depression Visibility Wind Speed Wind Dir Waves Ship Positions

Eko 4

Last reported at 2016-May-01 00:33 UTC. Time now 2016-May-01 11:48 UTC.
Position N 37°54' E 024°33'.

Length 88 m; draft 5 m.

Type: Tanker. MMSI: 240912000.

Date/timePositionNaut miles runAvg speedWind from/ knotsBaromVisibWave heightAir tempDewpointWater temp
2016-May-01 00:33N 37°54' E 024°33'8 8.1
2016-Apr-30 23:33N 37°49' E 024°25'9 8.4
2016-Apr-30 22:33N 37°44' E 024°17'16 7.4
2016-Apr-30 20:20N 37°37' E 023°58'7 8.7
2016-Apr-30 19:33N 37°38' E 023°49'8 8.1
2016-Apr-30 18:33N 37°43' E 023°41'9 8.9
2016-Apr-30 17:33N 37°51' E 023°36'8 8.2
2016-Apr-30 16:33N 37°59' E 023°33'3 2.7
2016-Apr-30 15:32N 38°01' E 023°32'1 1.1
2016-Apr-30 14:22N 38°02' E 023°31'0 0.0
2016-Apr-30 13:16N 38°02' E 023°31'0 0.0
2016-Apr-30 12:22N 38°02' E 023°31'0 0.0
2016-Apr-30 11:28N 38°02' E 023°31'0 0.0
2016-Apr-30 10:31N 38°02' E 023°31'0 0.0
2016-Apr-29 18:08N 38°02' E 023°31'1 1.6
2016-Apr-29 17:34N 38°01' E 023°31'1 1.0
2016-Apr-29 16:29N 38°01' E 023°32'0 0.0
2016-Apr-29 15:29N 38°01' E 023°32'0 0.0
2016-Apr-29 14:29N 38°01' E 023°32'0 0.0
2016-Apr-29 13:26N 38°01' E 023°32'0 0.0
2016-Apr-29 12:32N 38°01' E 023°32'0 0.0
2016-Apr-29 11:32N 38°01' E 023°32'0 0.0
2016-Apr-29 10:32N 38°01' E 023°32'0 0.0
2016-Apr-29 09:14N 38°01' E 023°32'0 0.1
2016-Apr-29 08:32N 38°01' E 023°32'0 0.0
2016-Apr-29 07:32N 38°01' E 023°32'0 0.0
2016-Apr-29 06:32N 38°01' E 023°32'0 0.0
2016-Apr-29 05:32N 38°01' E 023°32'0 0.0
2016-Apr-29 04:32N 38°01' E 023°32'0 0.0
2016-Apr-29 03:23N 38°01' E 023°32'0 0.0
2016-Apr-29 02:32N 38°01' E 023°32'0 0.0
2016-Apr-29 01:26N 38°01' E 023°32'0 0.0
2016-Apr-29 00:29N 38°01' E 023°32'0 0.0
2016-Apr-28 23:20N 38°01' E 023°32'0 0.0
2016-Apr-28 22:32N 38°01' E 023°32'0 0.0
2016-Apr-28 21:32N 38°01' E 023°32'0 0.0
2016-Apr-28 20:32N 38°01' E 023°32'0 0.0
2016-Apr-28 19:32N 38°01' E 023°32'0 0.1
2016-Apr-28 18:32N 38°01' E 023°32'0 0.0
2016-Apr-28 16:32N 38°01' E 023°32'0 0.0
2016-Apr-28 15:32N 38°01' E 023°32'0 0.0
2016-Apr-28 14:32N 38°01' E 023°32'0 0.0
2016-Apr-28 13:32N 38°01' E 023°32'0 0.0
2016-Apr-28 12:26N 38°01' E 023°32'0 0.0
2016-Apr-28 11:26N 38°01' E 023°32'0 0.0
2016-Apr-28 10:32N 38°01' E 023°32'0 0.0
2016-Apr-28 09:32N 38°01' E 023°32'0 0.0
2016-Apr-28 08:32N 38°01' E 023°32'0 0.0
2016-Apr-28 07:32N 38°01' E 023°32'0 0.0
2016-Apr-28 06:32N 38°01' E 023°32'0 0.0
2016-Apr-28 05:29N 38°01' E 023°32'3 3.7
2016-Apr-28 04:33N 37°58' E 023°33'4 3.8
2016-Apr-28 03:33N 37°55' E 023°36'1 1.2
2016-Apr-28 02:33N 37°54' E 023°37'6 6.3
2016-Apr-28 01:33N 37°48' E 023°41'7 7.4
2016-Apr-28 00:33N 37°42' E 023°45'  
2016-Apr-24 14:25N 37°18' E 023°36'7 7.6
2016-Apr-24 13:33N 37°24' E 023°40'8 7.5
2016-Apr-24 12:33N 37°32' E 023°41'8 7.8
2016-Apr-24 11:33N 37°39' E 023°42'8 8.2
2016-Apr-24 10:33N 37°47' E 023°38'8 8.1
2016-Apr-24 09:33N 37°55' E 023°36'7 6.9
2016-Apr-24 08:33N 38°01' E 023°32'2 1.6
2016-Apr-24 07:31N 38°01' E 023°34'1 0.1
2016-Apr-23 18:32N 38°01' E 023°33'1 1.2
2016-Apr-23 17:29N 38°02' E 023°31'0 0.0
2016-Apr-23 16:32N 38°02' E 023°31'0 0.0
2016-Apr-23 15:32N 38°02' E 023°31'0 0.0
2016-Apr-23 14:32N 38°02' E 023°31'0 0.0
2016-Apr-23 13:32N 38°02' E 023°31'0 0.0
2016-Apr-23 12:32N 38°02' E 023°31'0 0.0
2016-Apr-23 11:32N 38°02' E 023°31'0 0.0
2016-Apr-23 10:29N 38°02' E 023°31'0 0.0
2016-Apr-23 09:32N 38°02' E 023°31'0 0.0
2016-Apr-23 08:32N 38°02' E 023°31'0 0.1
2016-Apr-23 07:32N 38°02' E 023°31'0 0.1
2016-Apr-23 06:32N 38°02' E 023°31'0 0.0
2016-Apr-23 05:32N 38°02' E 023°31'0 0.0
2016-Apr-23 04:32N 38°02' E 023°31'0 0.0
2016-Apr-23 03:32N 38°02' E 023°31'0 0.1
2016-Apr-23 02:32N 38°02' E 023°31'0 0.1
2016-Apr-23 01:32N 38°02' E 023°31'0 0.0
2016-Apr-23 00:32N 38°02' E 023°31'1 1.1
2016-Apr-22 23:34N 38°01' E 023°33'2 0.5
2016-Apr-22 18:08N 38°02' E 023°36'1 1.5
2016-Apr-22 17:32N 38°01' E 023°35'5 4.8
2016-Apr-22 16:34N 37°57' E 023°35'8 8.2
2016-Apr-22 15:33N 37°49' E 023°40'10 9.6
2016-Apr-22 14:33N 37°41' E 023°45'  
Track history (hours):
 
Tides and Currents Weather Stations Pressure Air Temp Water Temp Dewpoint Dewpoint Depression Visibility Wind Speed Wind Dir Waves Ship Positions

Eko 4

Last reported at 2016-May-01 00:33 UTC. Time now 2016-May-01 11:48 UTC.
Position N 37°54' E 024°33'.

Length 88 m; draft 5 m.

Type: Tanker. MMSI: 240912000.

Date/timePositionNaut miles runAvg speedWind from/ knotsBaromVisibWave heightAir tempDewpointWater temp
2016-May-01 00:33N 37°54' E 024°33'8 8.1
2016-Apr-30 23:33N 37°49' E 024°25'9 8.4
2016-Apr-30 22:33N 37°44' E 024°17'16 7.4
2016-Apr-30 20:20N 37°37' E 023°58'7 8.7
2016-Apr-30 19:33N 37°38' E 023°49'8 8.1
2016-Apr-30 18:33N 37°43' E 023°41'9 8.9
2016-Apr-30 17:33N 37°51' E 023°36'8 8.2
2016-Apr-30 16:33N 37°59' E 023°33'3 2.7
2016-Apr-30 15:32N 38°01' E 023°32'1 1.1
2016-Apr-30 14:22N 38°02' E 023°31'0 0.0
2016-Apr-30 13:16N 38°02' E 023°31'0 0.0
2016-Apr-30 12:22N 38°02' E 023°31'0 0.0
2016-Apr-30 11:28N 38°02' E 023°31'0 0.0
2016-Apr-30 10:31N 38°02' E 023°31'0 0.0
2016-Apr-29 18:08N 38°02' E 023°31'1 1.6
2016-Apr-29 17:34N 38°01' E 023°31'1 1.0
2016-Apr-29 16:29N 38°01' E 023°32'0 0.0
2016-Apr-29 15:29N 38°01' E 023°32'0 0.0
2016-Apr-29 14:29N 38°01' E 023°32'0 0.0
2016-Apr-29 13:26N 38°01' E 023°32'0 0.0
2016-Apr-29 12:32N 38°01' E 023°32'0 0.0
2016-Apr-29 11:32N 38°01' E 023°32'0 0.0
2016-Apr-29 10:32N 38°01' E 023°32'0 0.0
2016-Apr-29 09:14N 38°01' E 023°32'0 0.1
2016-Apr-29 08:32N 38°01' E 023°32'0 0.0
2016-Apr-29 07:32N 38°01' E 023°32'0 0.0
2016-Apr-29 06:32N 38°01' E 023°32'0 0.0
2016-Apr-29 05:32N 38°01' E 023°32'0 0.0
2016-Apr-29 04:32N 38°01' E 023°32'0 0.0
2016-Apr-29 03:23N 38°01' E 023°32'0 0.0
2016-Apr-29 02:32N 38°01' E 023°32'0 0.0
2016-Apr-29 01:26N 38°01' E 023°32'0 0.0
2016-Apr-29 00:29N 38°01' E 023°32'0 0.0
2016-Apr-28 23:20N 38°01' E 023°32'0 0.0
2016-Apr-28 22:32N 38°01' E 023°32'0 0.0
2016-Apr-28 21:32N 38°01' E 023°32'0 0.0
2016-Apr-28 20:32N 38°01' E 023°32'0 0.0
2016-Apr-28 19:32N 38°01' E 023°32'0 0.1
2016-Apr-28 18:32N 38°01' E 023°32'0 0.0
2016-Apr-28 16:32N 38°01' E 023°32'0 0.0
2016-Apr-28 15:32N 38°01' E 023°32'0 0.0
2016-Apr-28 14:32N 38°01' E 023°32'0 0.0
2016-Apr-28 13:32N 38°01' E 023°32'0 0.0
2016-Apr-28 12:26N 38°01' E 023°32'0 0.0
2016-Apr-28 11:26N 38°01' E 023°32'0 0.0
2016-Apr-28 10:32N 38°01' E 023°32'0 0.0
2016-Apr-28 09:32N 38°01' E 023°32'0 0.0
2016-Apr-28 08:32N 38°01' E 023°32'0 0.0
2016-Apr-28 07:32N 38°01' E 023°32'0 0.0
2016-Apr-28 06:32N 38°01' E 023°32'0 0.0
2016-Apr-28 05:29N 38°01' E 023°32'3 3.7
2016-Apr-28 04:33N 37°58' E 023°33'4 3.8
2016-Apr-28 03:33N 37°55' E 023°36'1 1.2
2016-Apr-28 02:33N 37°54' E 023°37'6 6.3
2016-Apr-28 01:33N 37°48' E 023°41'7 7.4
2016-Apr-28 00:33N 37°42' E 023°45'  
2016-Apr-24 14:25N 37°18' E 023°36'7 7.6
2016-Apr-24 13:33N 37°24' E 023°40'8 7.5
2016-Apr-24 12:33N 37°32' E 023°41'8 7.8
2016-Apr-24 11:33N 37°39' E 023°42'8 8.2
2016-Apr-24 10:33N 37°47' E 023°38'8 8.1
2016-Apr-24 09:33N 37°55' E 023°36'7 6.9
2016-Apr-24 08:33N 38°01' E 023°32'2 1.6
2016-Apr-24 07:31N 38°01' E 023°34'1 0.1
2016-Apr-23 18:32N 38°01' E 023°33'1 1.2
2016-Apr-23 17:29N 38°02' E 023°31'0 0.0
2016-Apr-23 16:32N 38°02' E 023°31'0 0.0
2016-Apr-23 15:32N 38°02' E 023°31'0 0.0
2016-Apr-23 14:32N 38°02' E 023°31'0 0.0
2016-Apr-23 13:32N 38°02' E 023°31'0 0.0
2016-Apr-23 12:32N 38°02' E 023°31'0 0.0
2016-Apr-23 11:32N 38°02' E 023°31'0 0.0
2016-Apr-23 10:29N 38°02' E 023°31'0 0.0
2016-Apr-23 09:32N 38°02' E 023°31'0 0.0
2016-Apr-23 08:32N 38°02' E 023°31'0 0.1
2016-Apr-23 07:32N 38°02' E 023°31'0 0.1
2016-Apr-23 06:32N 38°02' E 023°31'0 0.0
2016-Apr-23 05:32N 38°02' E 023°31'0 0.0
2016-Apr-23 04:32N 38°02' E 023°31'0 0.0
2016-Apr-23 03:32N 38°02' E 023°31'0 0.1
2016-Apr-23 02:32N 38°02' E 023°31'0 0.1
2016-Apr-23 01:32N 38°02' E 023°31'0 0.0
2016-Apr-23 00:32N 38°02' E 023°31'1 1.1
2016-Apr-22 23:34N 38°01' E 023°33'2 0.5
2016-Apr-22 18:08N 38°02' E 023°36'1 1.5
2016-Apr-22 17:32N 38°01' E 023°35'5 4.8
2016-Apr-22 16:34N 37°57' E 023°35'8 8.2
2016-Apr-22 15:33N 37°49' E 023°40'10 9.6
2016-Apr-22 14:33N 37°41' E 023°45'  

Dump ship's entire track history